createdAt,value
2023-02-04T00:02:46.667Z,0
2023-02-04T00:07:46.563Z,0
2023-02-04T00:12:46.568Z,0
2023-02-04T00:17:46.591Z,0
2023-02-04T00:22:46.583Z,0
2023-02-04T00:27:46.576Z,0
2023-02-04T00:32:46.575Z,0
2023-02-04T00:37:46.534Z,0
2023-02-04T00:42:46.585Z,0
2023-02-04T00:47:46.553Z,0
2023-02-04T00:52:46.575Z,0
2023-02-04T00:57:46.567Z,0
2023-02-04T01:02:46.575Z,0
2023-02-04T01:07:46.633Z,0
2023-02-04T01:12:46.587Z,0
2023-02-04T01:17:46.562Z,0
2023-02-04T01:22:46.549Z,0
2023-02-04T01:27:46.576Z,0
2023-02-04T01:32:46.585Z,0
2023-02-04T01:37:46.559Z,0
2023-02-04T01:42:46.514Z,0
2023-02-04T01:47:46.530Z,0
2023-02-04T01:52:46.563Z,0
2023-02-04T01:57:46.510Z,0
2023-02-04T02:02:46.534Z,0
2023-02-04T02:07:46.514Z,0
2023-02-04T02:12:46.567Z,0
2023-02-04T02:17:46.491Z,0
2023-02-04T02:22:46.498Z,0
2023-02-04T02:27:46.518Z,0
2023-02-04T02:32:46.506Z,0
2023-02-04T02:37:46.483Z,0
2023-02-04T02:42:46.485Z,0
2023-02-04T02:47:46.514Z,0
2023-02-04T02:52:46.514Z,0
2023-02-04T02:57:46.512Z,0
2023-02-04T03:02:46.501Z,0
2023-02-04T03:07:46.485Z,0
2023-02-04T03:12:46.520Z,0
2023-02-04T03:17:46.489Z,0
2023-02-04T03:22:46.461Z,0
2023-02-04T03:27:46.525Z,0
2023-02-04T03:32:46.471Z,0
2023-02-04T03:37:46.489Z,0
2023-02-04T03:42:46.473Z,0
2023-02-04T03:47:46.465Z,0
2023-02-04T03:52:46.483Z,0
2023-02-04T03:57:46.460Z,0
2023-02-04T04:02:46.458Z,0
2023-02-04T04:07:46.431Z,0
2023-02-04T04:12:46.457Z,0
2023-02-04T04:17:46.460Z,0
2023-02-04T04:22:46.443Z,0
2023-02-04T04:27:46.555Z,0
2023-02-04T04:32:46.451Z,0
2023-02-04T04:37:46.443Z,0
2023-02-04T04:42:46.471Z,0
2023-02-04T04:47:46.447Z,0
2023-02-04T04:52:46.452Z,0
2023-02-04T04:57:46.404Z,0
2023-02-04T05:02:46.429Z,0
2023-02-04T05:07:46.396Z,0
2023-02-04T05:12:46.412Z,0
2023-02-04T05:17:46.412Z,0
2023-02-04T05:22:46.429Z,0
2023-02-04T05:27:46.512Z,0
2023-02-04T05:32:46.452Z,0
2023-02-04T05:37:46.420Z,0
2023-02-04T05:42:46.410Z,0
2023-02-04T05:47:46.405Z,0
2023-02-04T05:52:46.429Z,0
2023-02-04T05:57:46.389Z,0
2023-02-04T06:02:46.400Z,0
2023-02-04T06:07:46.388Z,0
2023-02-04T06:12:46.382Z,0
2023-02-04T06:17:46.397Z,0
2023-02-04T06:22:46.351Z,0
2023-02-04T06:27:46.413Z,0
2023-02-04T06:32:46.373Z,0
2023-02-04T06:37:46.359Z,0
2023-02-04T06:42:46.374Z,0
2023-02-04T06:47:46.328Z,0
2023-02-04T06:52:46.400Z,0
2023-02-04T06:57:46.337Z,0
2023-02-04T07:02:46.436Z,0
2023-02-04T07:07:46.337Z,3
2023-02-04T07:12:46.356Z,6
2023-02-04T07:17:46.347Z,8
2023-02-04T07:22:46.337Z,13
2023-02-04T07:27:46.341Z,15
2023-02-04T07:32:46.361Z,13
2023-02-04T07:37:46.329Z,15
2023-02-04T07:42:46.320Z,15
2023-02-04T07:47:46.329Z,14
2023-02-04T07:52:46.353Z,18
2023-02-04T07:57:46.334Z,23
2023-02-04T08:02:46.339Z,29
2023-02-04T08:07:46.287Z,28
2023-02-04T08:12:46.314Z,31
2023-02-04T08:17:46.295Z,37
2023-02-04T08:22:46.313Z,39
2023-02-04T08:27:46.312Z,40
2023-02-04T08:32:46.320Z,128
2023-02-04T08:37:46.274Z,128
2023-02-04T08:42:46.278Z,406
2023-02-04T08:47:46.310Z,438
2023-02-04T08:52:46.333Z,227
2023-02-04T08:57:46.344Z,93
2023-02-04T09:02:46.279Z,115
2023-02-04T09:07:46.315Z,291
2023-02-04T09:12:46.331Z,239
2023-02-04T09:17:46.313Z,181
2023-02-04T09:22:46.332Z,308
2023-02-04T09:27:46.343Z,342
2023-02-04T09:32:46.303Z,363
2023-02-04T09:37:46.277Z,282
2023-02-04T09:42:46.287Z,230
2023-02-04T09:47:46.333Z,373
2023-02-04T09:52:46.340Z,189
2023-02-04T09:57:46.299Z,127
2023-02-04T10:02:46.275Z,97
2023-02-04T10:07:46.294Z,513
2023-02-04T10:12:46.297Z,483
2023-02-04T10:17:46.276Z,438
2023-02-04T10:22:46.245Z,414
2023-02-04T10:27:46.269Z,420
2023-02-04T10:32:46.334Z,363
2023-02-04T10:37:46.257Z,438
2023-02-04T10:42:46.232Z,464
2023-02-04T10:47:46.259Z,402
2023-02-04T10:52:46.296Z,511
2023-02-04T10:57:46.243Z,340
2023-02-04T11:02:46.277Z,329
2023-02-04T11:07:46.249Z,284
2023-02-04T11:12:46.290Z,308
2023-02-04T11:17:46.222Z,404
2023-02-04T11:22:46.244Z,486
2023-02-04T11:27:46.263Z,579
2023-02-04T11:32:46.265Z,554
2023-02-04T11:37:46.256Z,435
2023-02-04T11:42:46.278Z,520
2023-02-04T11:47:46.250Z,547
2023-02-04T11:52:46.261Z,530
2023-02-04T11:57:46.258Z,550
2023-02-04T12:02:46.284Z,545
2023-02-04T12:07:46.256Z,505
2023-02-04T12:12:46.310Z,559
2023-02-04T12:17:46.249Z,548
2023-02-04T12:22:46.219Z,472
2023-02-04T12:27:46.244Z,488
2023-02-04T12:32:46.250Z,491
2023-02-04T12:37:46.240Z,513
2023-02-04T12:42:46.244Z,536
2023-02-04T12:47:46.241Z,528
2023-02-04T12:52:46.255Z,576
2023-02-04T12:57:46.196Z,526
2023-02-04T13:02:46.183Z,475
2023-02-04T13:07:46.215Z,344
2023-02-04T13:12:46.218Z,564
2023-02-04T13:17:46.265Z,543
2023-02-04T13:22:46.252Z,479
2023-02-04T13:27:46.541Z,274
2023-02-04T13:32:46.490Z,365
2023-02-04T13:37:46.464Z,431
2023-02-04T13:42:46.464Z,399
2023-02-04T13:47:46.479Z,382
2023-02-04T13:52:46.457Z,529
2023-02-04T13:57:46.469Z,330
2023-02-04T14:02:46.462Z,310
2023-02-04T14:07:46.434Z,346
2023-02-04T14:12:46.571Z,391
2023-02-04T14:17:46.434Z,230
2023-02-04T14:22:46.436Z,212
2023-02-04T14:27:46.443Z,134
2023-02-04T14:32:46.448Z,305
2023-02-04T14:37:46.418Z,334
2023-02-04T14:42:46.421Z,297
2023-02-04T14:47:46.564Z,146
2023-02-04T14:52:46.561Z,114
2023-02-04T14:57:46.431Z,118
2023-02-04T15:02:46.510Z,120
2023-02-04T15:07:46.422Z,150
2023-02-04T15:12:46.442Z,178
2023-02-04T15:17:46.431Z,138
2023-02-04T15:22:46.434Z,81
2023-02-04T15:27:46.424Z,54
2023-02-04T15:32:46.489Z,45
2023-02-04T15:37:46.408Z,41
2023-02-04T15:42:46.405Z,36
2023-02-04T15:47:46.392Z,27
2023-02-04T15:52:46.451Z,21
2023-02-04T15:57:46.386Z,15
2023-02-04T16:02:46.484Z,12
2023-02-04T16:07:46.409Z,11
2023-02-04T16:12:46.448Z,6
2023-02-04T16:17:46.412Z,0
2023-02-04T16:22:46.438Z,0
2023-02-04T16:27:46.418Z,0
2023-02-04T16:32:46.436Z,0
2023-02-04T16:37:46.359Z,0
2023-02-04T16:42:46.389Z,0
2023-02-04T16:47:46.380Z,0
2023-02-04T16:52:46.430Z,0
2023-02-04T16:57:46.391Z,0
2023-02-04T17:02:46.494Z,0
2023-02-04T17:07:46.371Z,0
2023-02-04T17:12:46.402Z,0
2023-02-04T17:17:46.367Z,0
2023-02-04T17:22:46.352Z,0
2023-02-04T17:27:46.463Z,0
2023-02-04T17:32:46.409Z,0
2023-02-04T17:37:46.338Z,0
2023-02-04T17:42:46.354Z,0
2023-02-04T17:47:46.345Z,0
2023-02-04T17:52:46.380Z,0
2023-02-04T17:57:46.372Z,0
2023-02-04T18:02:46.389Z,0
2023-02-04T18:07:46.363Z,0
2023-02-04T18:12:46.353Z,0
2023-02-04T18:17:46.362Z,0
2023-02-04T18:22:46.349Z,0
2023-02-04T18:27:46.382Z,0
2023-02-04T18:32:46.376Z,0
2023-02-04T18:37:46.335Z,0
2023-02-04T18:42:46.320Z,0
2023-02-04T18:47:46.335Z,0
2023-02-04T18:52:46.323Z,0
2023-02-04T18:57:46.286Z,0
2023-02-04T19:02:46.315Z,0
2023-02-04T19:07:46.353Z,0
2023-02-04T19:12:46.338Z,0
2023-02-04T19:17:46.323Z,0
2023-02-04T19:22:46.357Z,0
2023-02-04T19:27:46.332Z,0
2023-02-04T19:32:46.349Z,0
2023-02-04T19:37:46.312Z,0
2023-02-04T19:42:46.290Z,0
2023-02-04T19:47:46.288Z,0
2023-02-04T19:52:46.341Z,0
2023-02-04T19:57:46.283Z,0
2023-02-04T20:02:46.293Z,0
2023-02-04T20:07:46.316Z,0
2023-02-04T20:12:46.308Z,0
2023-02-04T20:17:46.275Z,0
2023-02-04T20:22:46.248Z,0
2023-02-04T20:27:46.339Z,0
2023-02-04T20:32:46.288Z,0
2023-02-04T20:37:46.278Z,0
2023-02-04T20:42:46.298Z,0
2023-02-04T20:47:46.275Z,0
2023-02-04T20:52:46.280Z,0
2023-02-04T20:57:46.234Z,0
2023-02-04T21:02:46.285Z,0
2023-02-04T21:07:46.252Z,0
2023-02-04T21:12:46.296Z,0
2023-02-04T21:17:46.257Z,0
2023-02-04T21:22:46.243Z,0
2023-02-04T21:27:46.266Z,0
2023-02-04T21:32:46.316Z,0
2023-02-04T21:37:46.214Z,0
2023-02-04T21:42:46.214Z,0
2023-02-04T21:47:46.230Z,0
2023-02-04T21:52:46.228Z,0
2023-02-04T21:57:46.220Z,0
2023-02-04T22:02:46.234Z,0
2023-02-04T22:07:46.209Z,0
2023-02-04T22:12:46.246Z,0
2023-02-04T22:17:46.227Z,0
2023-02-04T22:22:46.220Z,0
2023-02-04T22:27:46.221Z,0
2023-02-04T22:32:46.263Z,0
2023-02-04T22:37:46.204Z,0
2023-02-04T22:42:46.202Z,0
2023-02-04T22:47:46.183Z,0
2023-02-04T22:52:46.236Z,0
2023-02-04T22:57:46.173Z,0
2023-02-04T23:02:46.164Z,0
2023-02-04T23:07:46.170Z,0
2023-02-04T23:12:46.190Z,0
2023-02-04T23:17:46.184Z,0
2023-02-04T23:22:46.162Z,0
2023-02-04T23:27:46.178Z,0
2023-02-04T23:32:46.185Z,0
2023-02-04T23:37:46.167Z,0
2023-02-04T23:42:46.188Z,0
2023-02-04T23:47:46.172Z,0
2023-02-04T23:52:46.190Z,0
2023-02-04T23:57:46.143Z,0
